sensor_id;sensor_type;location;lat;lon;timestamp;temperature;humidity
2463;DHT22;1243;54.298;10.172;2022-12-07T00:02:05;2.60;1.00
2463;DHT22;1243;54.298;10.172;2022-12-07T00:04:31;2.60;1.00
2463;DHT22;1243;54.298;10.172;2022-12-07T00:06:57;2.60;1.00
2463;DHT22;1243;54.298;10.172;2022-12-07T00:09:22;2.60;1.00
2463;DHT22;1243;54.298;10.172;2022-12-07T00:11:50;2.50;1.00
2463;DHT22;1243;54.298;10.172;2022-12-07T00:14:17;2.50;1.00
2463;DHT22;1243;54.298;10.172;2022-12-07T00:16:44;2.40;1.00
2463;DHT22;1243;54.298;10.172;2022-12-07T00:19:11;2.30;1.00
2463;DHT22;1243;54.298;10.172;2022-12-07T00:21:38;2.30;1.00
2463;DHT22;1243;54.298;10.172;2022-12-07T00:24:05;2.20;1.00
2463;DHT22;1243;54.298;10.172;2022-12-07T00:26:34;2.20;1.00
2463;DHT22;1243;54.298;10.172;2022-12-07T00:29:02;2.20;1.00
2463;DHT22;1243;54.298;10.172;2022-12-07T00:31:32;2.20;1.00
2463;DHT22;1243;54.298;10.172;2022-12-07T00:33:59;2.20;1.00
2463;DHT22;1243;54.298;10.172;2022-12-07T00:36:25;2.30;1.00
2463;DHT22;1243;54.298;10.172;2022-12-07T00:38:52;2.30;1.00
2463;DHT22;1243;54.298;10.172;2022-12-07T00:41:20;2.40;1.00
2463;DHT22;1243;54.298;10.172;2022-12-07T00:43:47;2.50;1.00
2463;DHT22;1243;54.298;10.172;2022-12-07T00:46:14;2.50;1.00
2463;DHT22;1243;54.298;10.172;2022-12-07T00:48:40;2.50;1.00
2463;DHT22;1243;54.298;10.172;2022-12-07T00:51:08;2.60;1.00
2463;DHT22;1243;54.298;10.172;2022-12-07T00:53:35;2.60;1.00
2463;DHT22;1243;54.298;10.172;2022-12-07T00:56:06;2.70;1.00
2463;DHT22;1243;54.298;10.172;2022-12-07T00:58:31;2.70;1.00
2463;DHT22;1243;54.298;10.172;2022-12-07T01:01:03;2.80;1.00
2463;DHT22;1243;54.298;10.172;2022-12-07T01:03:29;2.90;1.00
2463;DHT22;1243;54.298;10.172;2022-12-07T01:05:55;2.90;1.00
2463;DHT22;1243;54.298;10.172;2022-12-07T01:08:22;2.90;1.00
2463;DHT22;1243;54.298;10.172;2022-12-07T01:10:49;2.90;1.00
2463;DHT22;1243;54.298;10.172;2022-12-07T01:13:16;2.90;1.00
2463;DHT22;1243;54.298;10.172;2022-12-07T01:15:43;2.90;1.00
2463;DHT22;1243;54.298;10.172;2022-12-07T01:18:09;3.00;1.00
2463;DHT22;1243;54.298;10.172;2022-12-07T01:20:35;2.90;1.00
2463;DHT22;1243;54.298;10.172;2022-12-07T01:23:02;2.90;1.00
2463;DHT22;1243;54.298;10.172;2022-12-07T01:25:28;2.80;1.00
2463;DHT22;1243;54.298;10.172;2022-12-07T01:27:54;2.90;1.00
2463;DHT22;1243;54.298;10.172;2022-12-07T01:30:20;2.90;1.00
2463;DHT22;1243;54.298;10.172;2022-12-07T01:32:45;2.90;1.00
2463;DHT22;1243;54.298;10.172;2022-12-07T01:35:11;3.00;1.00
2463;DHT22;1243;54.298;10.172;2022-12-07T01:37:38;2.90;1.00
2463;DHT22;1243;54.298;10.172;2022-12-07T01:40:06;2.90;1.00
2463;DHT22;1243;54.298;10.172;2022-12-07T01:42:33;2.90;1.00
2463;DHT22;1243;54.298;10.172;2022-12-07T01:47:51;3.00;1.00
2463;DHT22;1243;54.298;10.172;2022-12-07T01:50:18;3.00;1.00
2463;DHT22;1243;54.298;10.172;2022-12-07T01:52:45;3.10;7.10
2463;DHT22;1243;54.298;10.172;2022-12-07T01:55:14;3.20;22.80
2463;DHT22;1243;54.298;10.172;2022-12-07T01:57:43;3.20;27.20
2463;DHT22;1243;54.298;10.172;2022-12-07T02:00:11;3.20;32.80
2463;DHT22;1243;54.298;10.172;2022-12-07T02:02:43;3.30;40.60
2463;DHT22;1243;54.298;10.172;2022-12-07T02:05:09;3.20;28.80
2463;DHT22;1243;54.298;10.172;2022-12-07T02:07:36;3.20;30.70
2463;DHT22;1243;54.298;10.172;2022-12-07T02:12:51;3.20;43.40
2463;DHT22;1243;54.298;10.172;2022-12-07T02:15:20;3.20;40.90
2463;DHT22;1243;54.298;10.172;2022-12-07T02:18:25;3.10;37.80
2463;DHT22;1243;54.298;10.172;2022-12-07T02:24:02;3.10;43.80
2463;DHT22;1243;54.298;10.172;2022-12-07T02:29:24;2.90;47.10
2463;DHT22;1243;54.298;10.172;2022-12-07T02:32:15;2.80;50.70
2463;DHT22;1243;54.298;10.172;2022-12-07T02:34:52;2.90;75.80
2463;DHT22;1243;54.298;10.172;2022-12-07T02:38:25;2.80;75.60
2463;DHT22;1243;54.298;10.172;2022-12-07T02:43:04;2.80;90.70
2463;DHT22;1243;54.298;10.172;2022-12-07T02:45:35;2.90;97.00
2463;DHT22;1243;54.298;10.172;2022-12-07T02:48:02;2.80;98.00
2463;DHT22;1243;54.298;10.172;2022-12-07T02:50:28;2.70;96.10
2463;DHT22;1243;54.298;10.172;2022-12-07T02:52:55;2.70;99.90
2463;DHT22;1243;54.298;10.172;2022-12-07T02:55:25;2.70;99.90
2463;DHT22;1243;54.298;10.172;2022-12-07T02:58:32;2.70;99.90
2463;DHT22;1243;54.298;10.172;2022-12-07T03:01:14;2.70;99.90
2463;DHT22;1243;54.298;10.172;2022-12-07T03:03:48;2.60;99.90
2463;DHT22;1243;54.298;10.172;2022-12-07T03:06:31;2.60;99.90
2463;DHT22;1243;54.298;10.172;2022-12-07T03:09:20;2.60;99.90
2463;DHT22;1243;54.298;10.172;2022-12-07T03:11:57;2.60;99.90
2463;DHT22;1243;54.298;10.172;2022-12-07T03:14:31;2.70;99.90
2463;DHT22;1243;54.298;10.172;2022-12-07T03:17:12;2.60;99.90
2463;DHT22;1243;54.298;10.172;2022-12-07T03:19:40;2.70;99.90
2463;DHT22;1243;54.298;10.172;2022-12-07T03:22:12;2.70;99.90
2463;DHT22;1243;54.298;10.172;2022-12-07T03:24:42;2.70;99.90
2463;DHT22;1243;54.298;10.172;2022-12-07T03:27:22;2.60;99.90
2463;DHT22;1243;54.298;10.172;2022-12-07T03:29:56;2.60;99.90
2463;DHT22;1243;54.298;10.172;2022-12-07T03:32:31;2.60;99.90
2463;DHT22;1243;54.298;10.172;2022-12-07T03:35:14;2.60;99.90
2463;DHT22;1243;54.298;10.172;2022-12-07T03:38:32;2.50;99.90
2463;DHT22;1243;54.298;10.172;2022-12-07T03:40:59;2.40;99.90
2463;DHT22;1243;54.298;10.172;2022-12-07T03:43:28;2.40;99.90
2463;DHT22;1243;54.298;10.172;2022-12-07T03:46:27;2.40;99.90
2463;DHT22;1243;54.298;10.172;2022-12-07T03:49:02;2.50;99.90
2463;DHT22;1243;54.298;10.172;2022-12-07T03:54:14;2.50;99.90
2463;DHT22;1243;54.298;10.172;2022-12-07T03:56:42;2.40;99.90
2463;DHT22;1243;54.298;10.172;2022-12-07T03:59:09;2.50;99.90
2463;DHT22;1243;54.298;10.172;2022-12-07T04:01:36;2.50;99.90
2463;DHT22;1243;54.298;10.172;2022-12-07T04:04:02;2.50;99.90
2463;DHT22;1243;54.298;10.172;2022-12-07T04:06:27;2.50;99.90
2463;DHT22;1243;54.298;10.172;2022-12-07T04:08:53;2.40;99.90
2463;DHT22;1243;54.298;10.172;2022-12-07T04:11:19;2.30;99.90
2463;DHT22;1243;54.298;10.172;2022-12-07T04:13:44;2.30;99.90
2463;DHT22;1243;54.298;10.172;2022-12-07T04:16:28;2.40;99.90
2463;DHT22;1243;54.298;10.172;2022-12-07T04:18:54;2.50;99.90
2463;DHT22;1243;54.298;10.172;2022-12-07T04:21:20;2.40;99.90
2463;DHT22;1243;54.298;10.172;2022-12-07T04:23:45;2.40;99.90
2463;DHT22;1243;54.298;10.172;2022-12-07T04:26:11;2.40;99.90
2463;DHT22;1243;54.298;10.172;2022-12-07T04:28:37;2.50;99.90
2463;DHT22;1243;54.298;10.172;2022-12-07T04:31:03;2.50;99.90
2463;DHT22;1243;54.298;10.172;2022-12-07T04:33:28;2.50;99.90
2463;DHT22;1243;54.298;10.172;2022-12-07T04:35:54;2.40;99.90
2463;DHT22;1243;54.298;10.172;2022-12-07T04:38:20;2.40;99.90
2463;DHT22;1243;54.298;10.172;2022-12-07T04:40:45;2.30;99.90
2463;DHT22;1243;54.298;10.172;2022-12-07T04:43:11;2.40;99.90
2463;DHT22;1243;54.298;10.172;2022-12-07T04:45:37;2.40;99.90
2463;DHT22;1243;54.298;10.172;2022-12-07T04:48:03;2.40;99.90
2463;DHT22;1243;54.298;10.172;2022-12-07T04:50:28;2.50;99.90
2463;DHT22;1243;54.298;10.172;2022-12-07T04:52:54;2.50;99.90
2463;DHT22;1243;54.298;10.172;2022-12-07T04:55:20;2.50;99.90
2463;DHT22;1243;54.298;10.172;2022-12-07T04:57:45;2.50;99.90
2463;DHT22;1243;54.298;10.172;2022-12-07T05:00:11;2.50;99.90
2463;DHT22;1243;54.298;10.172;2022-12-07T05:02:37;2.50;99.90
2463;DHT22;1243;54.298;10.172;2022-12-07T05:05:03;2.40;99.90
2463;DHT22;1243;54.298;10.172;2022-12-07T05:07:28;2.30;97.90
2463;DHT22;1243;54.298;10.172;2022-12-07T05:09:54;2.30;99.60
2463;DHT22;1243;54.298;10.172;2022-12-07T05:12:20;2.20;96.50
2463;DHT22;1243;54.298;10.172;2022-12-07T05:14:46;2.20;95.00
2463;DHT22;1243;54.298;10.172;2022-12-07T05:17:11;2.00;90.30
2463;DHT22;1243;54.298;10.172;2022-12-07T05:19:37;1.90;76.30
2463;DHT22;1243;54.298;10.172;2022-12-07T05:22:03;1.80;75.00
2463;DHT22;1243;54.298;10.172;2022-12-07T05:24:28;1.70;82.80
2463;DHT22;1243;54.298;10.172;2022-12-07T05:26:54;1.60;83.20
2463;DHT22;1243;54.298;10.172;2022-12-07T05:29:20;1.60;87.70
2463;DHT22;1243;54.298;10.172;2022-12-07T05:31:45;1.50;90.80
2463;DHT22;1243;54.298;10.172;2022-12-07T05:34:11;1.50;95.40
2463;DHT22;1243;54.298;10.172;2022-12-07T05:36:37;1.40;97.60
2463;DHT22;1243;54.298;10.172;2022-12-07T05:39:03;1.50;99.90
2463;DHT22;1243;54.298;10.172;2022-12-07T05:41:29;1.60;99.90
2463;DHT22;1243;54.298;10.172;2022-12-07T05:44:13;1.50;99.90
2463;DHT22;1243;54.298;10.172;2022-12-07T05:46:38;1.40;99.90
2463;DHT22;1243;54.298;10.172;2022-12-07T05:49:04;1.50;99.90
2463;DHT22;1243;54.298;10.172;2022-12-07T05:51:30;1.50;99.90
2463;DHT22;1243;54.298;10.172;2022-12-07T05:53:56;1.50;99.90
2463;DHT22;1243;54.298;10.172;2022-12-07T05:56:22;1.50;99.90
2463;DHT22;1243;54.298;10.172;2022-12-07T05:58:48;1.60;99.90
2463;DHT22;1243;54.298;10.172;2022-12-07T06:01:32;1.60;99.90
2463;DHT22;1243;54.298;10.172;2022-12-07T06:03:58;1.60;99.90
2463;DHT22;1243;54.298;10.172;2022-12-07T06:06:23;1.60;99.90
2463;DHT22;1243;54.298;10.172;2022-12-07T06:08:49;1.60;99.90
2463;DHT22;1243;54.298;10.172;2022-12-07T06:11:15;1.60;99.90
2463;DHT22;1243;54.298;10.172;2022-12-07T06:13:59;1.50;99.90
2463;DHT22;1243;54.298;10.172;2022-12-07T06:16:25;1.50;99.90
2463;DHT22;1243;54.298;10.172;2022-12-07T06:18:50;1.30;99.90
2463;DHT22;1243;54.298;10.172;2022-12-07T06:21:16;1.30;99.90
2463;DHT22;1243;54.298;10.172;2022-12-07T06:23:42;1.30;99.90
2463;DHT22;1243;54.298;10.172;2022-12-07T06:26:07;1.30;99.90
2463;DHT22;1243;54.298;10.172;2022-12-07T06:28:33;1.30;99.90
2463;DHT22;1243;54.298;10.172;2022-12-07T06:31:02;1.20;99.90
2463;DHT22;1243;54.298;10.172;2022-12-07T06:33:29;1.20;99.90
2463;DHT22;1243;54.298;10.172;2022-12-07T06:35:55;1.30;99.90
2463;DHT22;1243;54.298;10.172;2022-12-07T06:38:21;1.20;99.90
2463;DHT22;1243;54.298;10.172;2022-12-07T06:40:46;1.20;99.90
2463;DHT22;1243;54.298;10.172;2022-12-07T06:43:13;1.20;99.90
2463;DHT22;1243;54.298;10.172;2022-12-07T06:45:40;1.20;99.90
2463;DHT22;1243;54.298;10.172;2022-12-07T06:48:06;1.20;99.90
2463;DHT22;1243;54.298;10.172;2022-12-07T06:50:32;1.20;99.90
2463;DHT22;1243;54.298;10.172;2022-12-07T06:52:57;1.20;99.90
2463;DHT22;1243;54.298;10.172;2022-12-07T06:55:23;1.30;99.90
2463;DHT22;1243;54.298;10.172;2022-12-07T06:57:49;1.20;99.90
2463;DHT22;1243;54.298;10.172;2022-12-07T07:00:15;1.20;99.90
2463;DHT22;1243;54.298;10.172;2022-12-07T07:02:41;1.20;99.90
2463;DHT22;1243;54.298;10.172;2022-12-07T07:05:07;1.20;99.90
2463;DHT22;1243;54.298;10.172;2022-12-07T07:07:33;1.30;99.90
2463;DHT22;1243;54.298;10.172;2022-12-07T07:09:59;1.30;99.90
2463;DHT22;1243;54.298;10.172;2022-12-07T07:12:24;1.20;99.90
2463;DHT22;1243;54.298;10.172;2022-12-07T07:14:50;1.20;99.90
2463;DHT22;1243;54.298;10.172;2022-12-07T07:17:16;1.20;99.90
2463;DHT22;1243;54.298;10.172;2022-12-07T07:19:42;1.20;98.40
2463;DHT22;1243;54.298;10.172;2022-12-07T07:22:07;1.20;99.90
2463;DHT22;1243;54.298;10.172;2022-12-07T07:24:33;1.20;99.90
2463;DHT22;1243;54.298;10.172;2022-12-07T07:26:59;1.30;96.60
2463;DHT22;1243;54.298;10.172;2022-12-07T07:29:24;1.30;97.10
2463;DHT22;1243;54.298;10.172;2022-12-07T07:31:50;1.30;98.20
2463;DHT22;1243;54.298;10.172;2022-12-07T07:34:16;1.20;96.40
2463;DHT22;1243;54.298;10.172;2022-12-07T07:36:42;1.30;96.50
2463;DHT22;1243;54.298;10.172;2022-12-07T07:39:09;1.30;96.40
2463;DHT22;1243;54.298;10.172;2022-12-07T07:41:34;1.40;99.90
2463;DHT22;1243;54.298;10.172;2022-12-07T07:44:00;1.40;99.90
2463;DHT22;1243;54.298;10.172;2022-12-07T07:46:26;1.40;99.90
2463;DHT22;1243;54.298;10.172;2022-12-07T07:48:51;1.40;99.90
2463;DHT22;1243;54.298;10.172;2022-12-07T07:51:17;1.50;99.90
2463;DHT22;1243;54.298;10.172;2022-12-07T07:53:43;1.50;99.90
2463;DHT22;1243;54.298;10.172;2022-12-07T07:56:08;1.60;99.90
2463;DHT22;1243;54.298;10.172;2022-12-07T07:58:34;1.60;99.90
2463;DHT22;1243;54.298;10.172;2022-12-07T08:01:05;1.70;99.90
2463;DHT22;1243;54.298;10.172;2022-12-07T08:03:31;1.70;99.80
2463;DHT22;1243;54.298;10.172;2022-12-07T08:05:57;1.70;99.90
2463;DHT22;1243;54.298;10.172;2022-12-07T08:08:23;1.80;98.40
2463;DHT22;1243;54.298;10.172;2022-12-07T08:10:48;1.80;99.20
2463;DHT22;1243;54.298;10.172;2022-12-07T08:13:16;1.80;97.30
2463;DHT22;1243;54.298;10.172;2022-12-07T08:15:46;1.90;96.30
2463;DHT22;1243;54.298;10.172;2022-12-07T08:18:12;2.00;98.60
2463;DHT22;1243;54.298;10.172;2022-12-07T08:20:39;2.10;96.70
2463;DHT22;1243;54.298;10.172;2022-12-07T08:23:06;2.10;92.20
2463;DHT22;1243;54.298;10.172;2022-12-07T08:25:32;2.10;93.20
2463;DHT22;1243;54.298;10.172;2022-12-07T08:27:58;2.10;80.80
2463;DHT22;1243;54.298;10.172;2022-12-07T08:30:24;2.10;76.50
2463;DHT22;1243;54.298;10.172;2022-12-07T08:32:50;2.10;75.50
2463;DHT22;1243;54.298;10.172;2022-12-07T08:35:16;2.20;75.30
2463;DHT22;1243;54.298;10.172;2022-12-07T08:37:42;2.20;74.50
2463;DHT22;1243;54.298;10.172;2022-12-07T08:40:09;2.20;72.40
2463;DHT22;1243;54.298;10.172;2022-12-07T08:42:35;2.30;71.80
2463;DHT22;1243;54.298;10.172;2022-12-07T08:45:11;2.30;53.10
2463;DHT22;1243;54.298;10.172;2022-12-07T08:47:40;2.30;53.90
2463;DHT22;1243;54.298;10.172;2022-12-07T08:50:08;2.40;42.90
2463;DHT22;1243;54.298;10.172;2022-12-07T08:52:35;2.50;42.40
2463;DHT22;1243;54.298;10.172;2022-12-07T08:55:03;2.40;23.00
2463;DHT22;1243;54.298;10.172;2022-12-07T08:57:32;2.30;1.00
2463;DHT22;1243;54.298;10.172;2022-12-07T08:59:59;2.30;1.00
2463;DHT22;1243;54.298;10.172;2022-12-07T09:02:25;2.40;1.00
2463;DHT22;1243;54.298;10.172;2022-12-07T09:04:51;2.40;1.00
2463;DHT22;1243;54.298;10.172;2022-12-07T09:07:17;2.40;1.00
2463;DHT22;1243;54.298;10.172;2022-12-07T09:09:43;2.40;1.00
2463;DHT22;1243;54.298;10.172;2022-12-07T09:12:09;2.40;1.00
2463;DHT22;1243;54.298;10.172;2022-12-07T09:14:36;2.40;1.00
2463;DHT22;1243;54.298;10.172;2022-12-07T09:17:09;2.40;1.00
2463;DHT22;1243;54.298;10.172;2022-12-07T09:19:35;2.40;1.00
2463;DHT22;1243;54.298;10.172;2022-12-07T09:22:02;2.50;1.00
2463;DHT22;1243;54.298;10.172;2022-12-07T09:24:27;2.50;1.00
2463;DHT22;1243;54.298;10.172;2022-12-07T09:26:53;2.50;1.00
2463;DHT22;1243;54.298;10.172;2022-12-07T09:29:19;2.50;1.00
2463;DHT22;1243;54.298;10.172;2022-12-07T09:31:45;2.50;1.00
2463;DHT22;1243;54.298;10.172;2022-12-07T09:34:10;2.60;1.00
2463;DHT22;1243;54.298;10.172;2022-12-07T09:36:36;2.60;1.00
2463;DHT22;1243;54.298;10.172;2022-12-07T09:39:02;2.60;1.00
2463;DHT22;1243;54.298;10.172;2022-12-07T09:41:30;2.60;1.00
2463;DHT22;1243;54.298;10.172;2022-12-07T09:44:09;2.60;1.00
2463;DHT22;1243;54.298;10.172;2022-12-07T09:46:38;2.60;1.00
2463;DHT22;1243;54.298;10.172;2022-12-07T09:49:05;2.60;1.00
2463;DHT22;1243;54.298;10.172;2022-12-07T09:51:35;2.60;1.00
2463;DHT22;1243;54.298;10.172;2022-12-07T09:54:01;2.70;1.00
2463;DHT22;1243;54.298;10.172;2022-12-07T09:56:29;2.70;1.00
2463;DHT22;1243;54.298;10.172;2022-12-07T09:59:00;2.70;1.00
2463;DHT22;1243;54.298;10.172;2022-12-07T10:01:32;2.80;1.00
2463;DHT22;1243;54.298;10.172;2022-12-07T10:06:32;2.70;1.00
2463;DHT22;1243;54.298;10.172;2022-12-07T10:08:58;2.70;1.00
2463;DHT22;1243;54.298;10.172;2022-12-07T10:11:24;2.70;1.00
2463;DHT22;1243;54.298;10.172;2022-12-07T10:13:52;2.80;1.00
2463;DHT22;1243;54.298;10.172;2022-12-07T10:18:54;2.80;1.00
2463;DHT22;1243;54.298;10.172;2022-12-07T10:21:22;2.80;1.00
2463;DHT22;1243;54.298;10.172;2022-12-07T10:24:01;2.80;1.00
2463;DHT22;1243;54.298;10.172;2022-12-07T10:26:40;2.80;99.90
2463;DHT22;1243;54.298;10.172;2022-12-07T10:29:29;2.80;99.90
2463;DHT22;1243;54.298;10.172;2022-12-07T10:32:05;2.90;99.90
2463;DHT22;1243;54.298;10.172;2022-12-07T10:34:36;2.90;99.90
2463;DHT22;1243;54.298;10.172;2022-12-07T10:39:49;2.90;99.90
2463;DHT22;1243;54.298;10.172;2022-12-07T10:42:22;2.90;99.90
2463;DHT22;1243;54.298;10.172;2022-12-07T10:44:50;2.90;99.90
2463;DHT22;1243;54.298;10.172;2022-12-07T10:56:15;3.10;99.90
2463;DHT22;1243;54.298;10.172;2022-12-07T11:02:13;3.10;99.90
2463;DHT22;1243;54.298;10.172;2022-12-07T11:07:52;3.30;99.90
2463;DHT22;1243;54.298;10.172;2022-12-07T11:13:27;3.50;99.90
2463;DHT22;1243;54.298;10.172;2022-12-07T11:16:24;3.50;99.90
2463;DHT22;1243;54.298;10.172;2022-12-07T11:21:58;3.50;99.90
2463;DHT22;1243;54.298;10.172;2022-12-07T11:29:49;3.60;99.90
2463;DHT22;1243;54.298;10.172;2022-12-07T11:38:14;3.50;99.90
2463;DHT22;1243;54.298;10.172;2022-12-07T11:40:45;3.40;99.90
2463;DHT22;1243;54.298;10.172;2022-12-07T11:43:23;3.40;99.90
2463;DHT22;1243;54.298;10.172;2022-12-07T11:46:08;3.50;99.90
2463;DHT22;1243;54.298;10.172;2022-12-07T11:48:40;3.50;99.90
2463;DHT22;1243;54.298;10.172;2022-12-07T11:51:10;3.50;99.90
2463;DHT22;1243;54.298;10.172;2022-12-07T11:56:50;3.50;99.90
2463;DHT22;1243;54.298;10.172;2022-12-07T11:59:37;3.60;99.90
2463;DHT22;1243;54.298;10.172;2022-12-07T12:02:16;3.50;99.90
2463;DHT22;1243;54.298;10.172;2022-12-07T12:04:54;3.60;99.90
2463;DHT22;1243;54.298;10.172;2022-12-07T12:07:24;3.60;99.90
2463;DHT22;1243;54.298;10.172;2022-12-07T12:09:59;3.50;99.90
2463;DHT22;1243;54.298;10.172;2022-12-07T12:21:06;3.50;99.90
2463;DHT22;1243;54.298;10.172;2022-12-07T12:23:53;3.40;99.90
2463;DHT22;1243;54.298;10.172;2022-12-07T12:26:23;3.40;99.90
2463;DHT22;1243;54.298;10.172;2022-12-07T12:32:17;3.40;99.90
2463;DHT22;1243;54.298;10.172;2022-12-07T12:37:47;3.50;99.90
2463;DHT22;1243;54.298;10.172;2022-12-07T12:42:47;3.40;99.90
2463;DHT22;1243;54.298;10.172;2022-12-07T12:45:30;3.30;99.90
2463;DHT22;1243;54.298;10.172;2022-12-07T12:48:57;3.40;99.90
2463;DHT22;1243;54.298;10.172;2022-12-07T12:51:39;3.40;99.90
2463;DHT22;1243;54.298;10.172;2022-12-07T12:54:14;3.30;99.90
2463;DHT22;1243;54.298;10.172;2022-12-07T12:57:01;3.20;99.90
2463;DHT22;1243;54.298;10.172;2022-12-07T12:59:41;3.10;99.90
2463;DHT22;1243;54.298;10.172;2022-12-07T13:15:37;3.20;99.70
2463;DHT22;1243;54.298;10.172;2022-12-07T13:28:47;2.50;93.30
2463;DHT22;1243;54.298;10.172;2022-12-07T13:33:51;2.60;91.20
2463;DHT22;1243;54.298;10.172;2022-12-07T13:36:34;2.60;89.80
2463;DHT22;1243;54.298;10.172;2022-12-07T13:41:44;2.50;90.40
2463;DHT22;1243;54.298;10.172;2022-12-07T13:44:15;2.50;99.90
2463;DHT22;1243;54.298;10.172;2022-12-07T13:49:29;2.50;99.90
2463;DHT22;1243;54.298;10.172;2022-12-07T13:54:47;2.70;98.70
2463;DHT22;1243;54.298;10.172;2022-12-07T13:57:15;2.60;99.90
2463;DHT22;1243;54.298;10.172;2022-12-07T13:59:41;2.60;99.90
2463;DHT22;1243;54.298;10.172;2022-12-07T14:02:25;2.60;99.90
2463;DHT22;1243;54.298;10.172;2022-12-07T14:04:52;2.50;99.50
2463;DHT22;1243;54.298;10.172;2022-12-07T14:07:24;2.50;97.40
2463;DHT22;1243;54.298;10.172;2022-12-07T14:09:55;2.40;89.70
2463;DHT22;1243;54.298;10.172;2022-12-07T14:12:22;2.30;93.40
2463;DHT22;1243;54.298;10.172;2022-12-07T14:14:48;2.30;93.40
2463;DHT22;1243;54.298;10.172;2022-12-07T14:17:22;2.30;89.50
2463;DHT22;1243;54.298;10.172;2022-12-07T14:19:51;2.20;89.40
2463;DHT22;1243;54.298;10.172;2022-12-07T14:22:24;2.10;89.50
2463;DHT22;1243;54.298;10.172;2022-12-07T14:24:57;2.10;89.40
2463;DHT22;1243;54.298;10.172;2022-12-07T14:27:24;2.20;89.50
2463;DHT22;1243;54.298;10.172;2022-12-07T14:29:56;2.20;89.40
2463;DHT22;1243;54.298;10.172;2022-12-07T14:32:23;2.20;99.90
2463;DHT22;1243;54.298;10.172;2022-12-07T14:34:57;2.30;99.90
2463;DHT22;1243;54.298;10.172;2022-12-07T14:37:24;2.30;89.60
2463;DHT22;1243;54.298;10.172;2022-12-07T14:39:50;2.30;89.50
2463;DHT22;1243;54.298;10.172;2022-12-07T14:42:16;2.30;99.40
2463;DHT22;1243;54.298;10.172;2022-12-07T14:44:41;2.30;99.00
2463;DHT22;1243;54.298;10.172;2022-12-07T14:47:10;2.30;98.10
2463;DHT22;1243;54.298;10.172;2022-12-07T14:49:36;2.20;89.50
2463;DHT22;1243;54.298;10.172;2022-12-07T14:52:02;2.20;90.00
2463;DHT22;1243;54.298;10.172;2022-12-07T14:54:31;2.20;99.90
2463;DHT22;1243;54.298;10.172;2022-12-07T14:56:57;2.20;89.80
2463;DHT22;1243;54.298;10.172;2022-12-07T14:59:23;2.10;97.40
2463;DHT22;1243;54.298;10.172;2022-12-07T15:01:50;2.10;99.10
2463;DHT22;1243;54.298;10.172;2022-12-07T15:04:16;2.00;98.90
2463;DHT22;1243;54.298;10.172;2022-12-07T15:06:42;2.10;90.00
2463;DHT22;1243;54.298;10.172;2022-12-07T15:09:11;2.00;98.10
2463;DHT22;1243;54.298;10.172;2022-12-07T15:11:37;2.00;99.90
2463;DHT22;1243;54.298;10.172;2022-12-07T15:14:03;1.90;99.90
2463;DHT22;1243;54.298;10.172;2022-12-07T15:16:38;1.90;99.90
2463;DHT22;1243;54.298;10.172;2022-12-07T15:19:06;1.90;99.90
2463;DHT22;1243;54.298;10.172;2022-12-07T15:21:34;1.90;99.90
2463;DHT22;1243;54.298;10.172;2022-12-07T15:23:59;1.90;99.90
2463;DHT22;1243;54.298;10.172;2022-12-07T15:26:25;1.90;99.90
2463;DHT22;1243;54.298;10.172;2022-12-07T15:28:53;2.00;91.80
2463;DHT22;1243;54.298;10.172;2022-12-07T15:31:19;1.90;99.90
2463;DHT22;1243;54.298;10.172;2022-12-07T15:33:45;1.90;99.90
2463;DHT22;1243;54.298;10.172;2022-12-07T15:36:31;2.00;99.90
2463;DHT22;1243;54.298;10.172;2022-12-07T15:38:57;2.00;99.90
2463;DHT22;1243;54.298;10.172;2022-12-07T15:41:23;2.00;95.30
2463;DHT22;1243;54.298;10.172;2022-12-07T15:43:49;1.90;99.90
2463;DHT22;1243;54.298;10.172;2022-12-07T15:46:37;1.90;99.90
2463;DHT22;1243;54.298;10.172;2022-12-07T15:49:04;1.90;99.90
2463;DHT22;1243;54.298;10.172;2022-12-07T15:51:31;1.90;99.90
2463;DHT22;1243;54.298;10.172;2022-12-07T15:53:57;1.90;99.90
2463;DHT22;1243;54.298;10.172;2022-12-07T15:56:23;1.90;99.90
2463;DHT22;1243;54.298;10.172;2022-12-07T15:58:49;1.90;99.90
2463;DHT22;1243;54.298;10.172;2022-12-07T16:01:17;1.90;99.90
2463;DHT22;1243;54.298;10.172;2022-12-07T16:03:43;1.90;99.90
2463;DHT22;1243;54.298;10.172;2022-12-07T16:06:09;1.90;99.90
2463;DHT22;1243;54.298;10.172;2022-12-07T16:08:35;1.80;99.90
2463;DHT22;1243;54.298;10.172;2022-12-07T16:11:08;1.80;90.50
2463;DHT22;1243;54.298;10.172;2022-12-07T16:13:34;1.80;99.90
2463;DHT22;1243;54.298;10.172;2022-12-07T16:16:09;1.80;99.90
2463;DHT22;1243;54.298;10.172;2022-12-07T16:18:35;1.80;99.90
2463;DHT22;1243;54.298;10.172;2022-12-07T16:21:01;1.80;99.90
2463;DHT22;1243;54.298;10.172;2022-12-07T16:23:27;1.80;99.90
2463;DHT22;1243;54.298;10.172;2022-12-07T16:25:53;1.80;99.90
2463;DHT22;1243;54.298;10.172;2022-12-07T16:28:19;1.80;99.90
2463;DHT22;1243;54.298;10.172;2022-12-07T16:30:45;1.70;99.90
2463;DHT22;1243;54.298;10.172;2022-12-07T16:33:11;1.70;99.90
2463;DHT22;1243;54.298;10.172;2022-12-07T16:35:39;1.70;89.40
2463;DHT22;1243;54.298;10.172;2022-12-07T16:38:09;1.70;93.80
2463;DHT22;1243;54.298;10.172;2022-12-07T16:40:34;1.60;99.90
2463;DHT22;1243;54.298;10.172;2022-12-07T16:43:00;1.60;99.90
2463;DHT22;1243;54.298;10.172;2022-12-07T16:45:26;1.60;99.90
2463;DHT22;1243;54.298;10.172;2022-12-07T16:47:52;1.60;99.90
2463;DHT22;1243;54.298;10.172;2022-12-07T16:50:18;1.60;99.90
2463;DHT22;1243;54.298;10.172;2022-12-07T16:52:43;1.60;99.90
2463;DHT22;1243;54.298;10.172;2022-12-07T16:55:09;1.60;99.90
2463;DHT22;1243;54.298;10.172;2022-12-07T16:57:35;1.60;99.90
2463;DHT22;1243;54.298;10.172;2022-12-07T17:00:01;1.50;99.90
2463;DHT22;1243;54.298;10.172;2022-12-07T17:02:28;1.50;99.90
2463;DHT22;1243;54.298;10.172;2022-12-07T17:04:54;1.50;94.90
2463;DHT22;1243;54.298;10.172;2022-12-07T17:07:20;1.40;94.40
2463;DHT22;1243;54.298;10.172;2022-12-07T17:09:45;1.30;99.90
2463;DHT22;1243;54.298;10.172;2022-12-07T17:12:11;1.30;99.90
2463;DHT22;1243;54.298;10.172;2022-12-07T17:14:37;1.20;99.90
2463;DHT22;1243;54.298;10.172;2022-12-07T17:17:21;1.10;99.90
2463;DHT22;1243;54.298;10.172;2022-12-07T17:19:47;1.10;99.90
2463;DHT22;1243;54.298;10.172;2022-12-07T17:22:12;1.10;99.90
2463;DHT22;1243;54.298;10.172;2022-12-07T17:24:39;1.10;99.90
2463;DHT22;1243;54.298;10.172;2022-12-07T17:27:04;1.10;99.90
2463;DHT22;1243;54.298;10.172;2022-12-07T17:29:30;1.10;99.90
2463;DHT22;1243;54.298;10.172;2022-12-07T17:31:56;1.10;99.90
2463;DHT22;1243;54.298;10.172;2022-12-07T17:34:22;1.10;99.90
2463;DHT22;1243;54.298;10.172;2022-12-07T17:36:47;1.10;99.90
2463;DHT22;1243;54.298;10.172;2022-12-07T17:39:16;1.10;99.90
2463;DHT22;1243;54.298;10.172;2022-12-07T17:41:42;1.10;99.90
2463;DHT22;1243;54.298;10.172;2022-12-07T17:44:27;1.10;99.90
2463;DHT22;1243;54.298;10.172;2022-12-07T17:46:53;1.10;99.90
2463;DHT22;1243;54.298;10.172;2022-12-07T17:49:24;1.10;99.90
2463;DHT22;1243;54.298;10.172;2022-12-07T17:51:49;1.10;99.90
2463;DHT22;1243;54.298;10.172;2022-12-07T17:54:34;1.10;99.90
2463;DHT22;1243;54.298;10.172;2022-12-07T17:56:59;1.10;99.90
2463;DHT22;1243;54.298;10.172;2022-12-07T17:59:25;1.10;99.90
2463;DHT22;1243;54.298;10.172;2022-12-07T18:01:51;1.20;99.90
2463;DHT22;1243;54.298;10.172;2022-12-07T18:04:17;1.20;99.90
2463;DHT22;1243;54.298;10.172;2022-12-07T18:06:43;1.20;99.90
2463;DHT22;1243;54.298;10.172;2022-12-07T18:09:10;1.20;99.90
2463;DHT22;1243;54.298;10.172;2022-12-07T18:11:36;1.20;99.90